Time;durP1;ratioP1;P1;durP2;ratioP2;P2;SDS_P1;SDS_P2;PMS_P1;PMS_P2;Temp;Humidity;BMP_temperature;BMP_pressure;BME280_temperature;BME280_humidity;BME280_pressure;Samples;Min_cycle;Max_cycle;Signal;HPM_P1;HPM_P2
2021/07/06 00:00:08;;;;;;;0.40;0.20;;;17.40;99.90;;;;;;5093011;28;20374;-84
2021/07/06 00:02:34;;;;;;;0.40;0.20;;;17.40;99.90;;;;;;5094183;28;20399;-84
2021/07/06 00:05:00;;;;;;;0.40;0.20;;;17.30;99.90;;;;;;5106433;28;20386;-84
2021/07/06 00:07:26;;;;;;;0.40;0.20;;;17.30;99.90;;;;;;5092411;28;20378;-84
2021/07/06 00:09:52;;;;;;;0.40;0.25;;;17.20;99.90;;;;;;5112125;28;20380;-84
2021/07/06 00:12:18;;;;;;;0.40;0.30;;;17.20;99.90;;;;;;5107085;28;20407;-84
2021/07/06 00:14:44;;;;;;;0.40;0.20;;;17.20;99.90;;;;;;5092797;28;20409;-84
2021/07/06 00:17:10;;;;;;;0.40;0.30;;;17.20;99.90;;;;;;5110740;28;20761;-84
2021/07/06 00:19:37;;;;;;;0.40;0.30;;;17.20;99.90;;;;;;5106708;28;20406;-84
2021/07/06 00:22:03;;;;;;;0.40;0.20;;;17.20;99.90;;;;;;5092582;28;20476;-83
2021/07/06 00:24:28;;;;;;;0.40;0.20;;;17.20;99.90;;;;;;5111873;28;20737;-84
2021/07/06 00:26:54;;;;;;;0.40;0.20;;;17.20;99.90;;;;;;5112361;28;20393;-84
2021/07/06 00:29:20;;;;;;;0.40;0.20;;;17.20;99.90;;;;;;5112513;28;20433;-84
2021/07/06 00:31:45;;;;;;;0.40;0.30;;;17.20;99.90;;;;;;5112940;28;20372;-84
2021/07/06 00:34:11;;;;;;;0.40;0.20;;;17.20;99.90;;;;;;5098931;28;20495;-84
2021/07/06 00:36:37;;;;;;;0.40;0.22;;;17.10;99.90;;;;;;5081862;28;20401;-84
2021/07/06 00:39:04;;;;;;;0.40;0.30;;;17.10;99.90;;;;;;5112816;28;20887;-84
2021/07/06 00:41:29;;;;;;;0.40;0.30;;;17.10;99.90;;;;;;5091769;28;20397;-83
2021/07/06 00:43:55;;;;;;;0.40;0.30;;;17.10;99.90;;;;;;5099204;28;20384;-84
2021/07/06 00:46:21;;;;;;;0.40;0.30;;;17.20;99.90;;;;;;5111449;28;20457;-84
2021/07/06 00:48:47;;;;;;;0.40;0.20;;;17.10;99.90;;;;;;5095189;28;20408;-84
2021/07/06 00:51:13;;;;;;;0.40;0.20;;;17.00;99.90;;;;;;5098767;28;20495;-84
2021/07/06 00:53:39;;;;;;;0.40;0.30;;;17.10;99.90;;;;;;5091518;28;20404;-83
2021/07/06 00:56:04;;;;;;;0.40;0.20;;;17.10;99.90;;;;;;5091935;28;20425;-84
2021/07/06 00:58:31;;;;;;;0.40;0.20;;;17.10;99.90;;;;;;5090907;28;20389;-84
2021/07/06 01:00:57;;;;;;;0.40;0.30;;;17.20;99.90;;;;;;5092201;28;20386;-84
2021/07/06 01:03:23;;;;;;;0.40;0.20;;;17.10;99.90;;;;;;5090968;28;20374;-83
2021/07/06 01:05:49;;;;;;;0.40;0.20;;;17.10;99.90;;;;;;5110409;28;20479;-84
2021/07/06 01:08:15;;;;;;;0.40;0.20;;;17.10;99.90;;;;;;5101710;28;20933;-84
2021/07/06 01:10:41;;;;;;;0.40;0.30;;;17.20;99.90;;;;;;5091705;28;20458;-84
2021/07/06 01:13:08;;;;;;;0.40;0.20;;;17.10;99.90;;;;;;5108931;28;20436;-84
2021/07/06 01:15:35;;;;;;;0.40;0.20;;;17.20;99.90;;;;;;5110978;28;20372;-84
2021/07/06 01:18:10;;;;;;;0.40;0.20;;;17.10;99.90;;;;;;5111839;28;20448;-84
2021/07/06 01:20:50;;;;;;;0.40;0.20;;;17.20;99.90;;;;;;5111113;28;20449;-84
2021/07/06 01:23:19;;;;;;;0.40;0.20;;;17.00;99.90;;;;;;5095680;28;20491;-84
2021/07/06 01:25:46;;;;;;;0.40;0.20;;;17.10;99.90;;;;;;5097765;28;20384;-85
2021/07/06 01:28:11;;;;;;;0.40;0.30;;;17.20;99.90;;;;;;5111783;28;20388;-84
2021/07/06 01:30:37;;;;;;;0.40;0.30;;;17.20;99.90;;;;;;5094297;28;20543;-84
2021/07/06 01:33:05;;;;;;;0.40;0.20;;;17.20;99.90;;;;;;5090826;28;20902;-84
2021/07/06 01:35:30;;;;;;;0.40;0.20;;;17.10;99.90;;;;;;5090600;28;20374;-83
2021/07/06 01:38:03;;;;;;;0.40;0.20;;;17.10;99.90;;;;;;5108776;28;20935;-83
2021/07/06 01:40:30;;;;;;;0.40;0.20;;;17.10;99.90;;;;;;5110616;28;20864;-84
2021/07/06 01:42:57;;;;;;;0.40;0.30;;;17.30;99.90;;;;;;5111195;28;20399;-84
2021/07/06 01:45:25;;;;;;;0.40;0.20;;;17.20;99.90;;;;;;5110647;28;20404;-83
2021/07/06 01:47:52;;;;;;;0.40;0.30;;;17.20;99.90;;;;;;5097543;28;20496;-84
2021/07/06 01:50:21;;;;;;;0.40;0.20;;;17.10;99.90;;;;;;5092258;28;20377;-84
2021/07/06 01:52:50;;;;;;;0.40;0.30;;;17.50;99.90;;;;;;5094872;28;20476;-84
2021/07/06 01:55:19;;;;;;;0.40;0.20;;;17.20;99.90;;;;;;5090097;28;20382;-84
2021/07/06 01:57:46;;;;;;;0.40;0.20;;;16.90;99.90;;;;;;5090728;28;20403;-84
2021/07/06 02:00:14;;;;;;;0.40;0.20;;;17.20;99.90;;;;;;5091016;28;20412;-84
2021/07/06 02:02:41;;;;;;;0.40;0.20;;;17.20;99.90;;;;;;5093329;28;20702;-84
2021/07/06 02:05:33;;;;;;;0.40;0.30;;;17.20;99.90;;;;;;5110763;28;20392;-84
2021/07/06 02:08:00;;;;;;;0.40;0.20;;;17.30;99.90;;;;;;5090883;28;20428;-84
2021/07/06 02:10:27;;;;;;;0.40;0.20;;;17.20;99.90;;;;;;5102277;28;20700;-83
2021/07/06 02:12:53;;;;;;;0.40;0.20;;;17.20;99.90;;;;;;5105822;28;20459;-84
2021/07/06 02:15:19;;;;;;;0.40;0.20;;;17.20;99.90;;;;;;5090607;28;20378;-84
2021/07/06 02:17:46;;;;;;;0.40;0.20;;;17.20;99.90;;;;;;5106581;28;20392;-83
2021/07/06 02:20:17;;;;;;;0.40;0.30;;;17.10;99.90;;;;;;5110147;28;20385;-84
2021/07/06 02:22:44;;;;;;;0.40;0.30;;;17.20;99.90;;;;;;5110537;28;20803;-84
2021/07/06 02:25:11;;;;;;;0.40;0.20;;;17.20;99.90;;;;;;5093152;28;20432;-84
2021/07/06 02:27:37;;;;;;;0.40;0.30;;;17.20;99.90;;;;;;5097896;28;20412;-84
2021/07/06 02:30:09;;;;;;;0.40;0.30;;;17.20;99.90;;;;;;5110841;28;20372;-84
2021/07/06 02:32:35;;;;;;;0.40;0.20;;;17.20;99.90;;;;;;5109250;28;20389;-84
2021/07/06 02:35:01;;;;;;;0.40;0.30;;;17.10;99.90;;;;;;5084709;28;20458;-84
2021/07/06 02:37:27;;;;;;;0.40;0.30;;;17.20;99.90;;;;;;5089296;28;20370;-83
2021/07/06 02:39:53;;;;;;;0.40;0.20;;;17.20;99.90;;;;;;5090280;28;20374;-84
2021/07/06 02:42:18;;;;;;;0.40;0.30;;;17.20;99.90;;;;;;5090314;28;20798;-84
2021/07/06 02:44:44;;;;;;;0.40;0.30;;;17.30;99.90;;;;;;5091136;28;20983;-84
2021/07/06 02:47:09;;;;;;;0.40;0.20;;;17.20;99.90;;;;;;5110298;28;20389;-84
2021/07/06 02:49:35;;;;;;;0.40;0.20;;;17.30;99.90;;;;;;5093301;28;20399;-84
2021/07/06 02:52:01;;;;;;;0.40;0.20;;;17.30;99.90;;;;;;5098514;28;20392;-84
2021/07/06 02:54:26;;;;;;;0.40;0.20;;;17.30;99.90;;;;;;5109632;28;20432;-83
2021/07/06 02:56:52;;;;;;;0.40;0.20;;;17.30;99.90;;;;;;5090531;28;20417;-84
2021/07/06 02:59:17;;;;;;;0.40;0.20;;;17.40;99.90;;;;;;5090138;28;20416;-84
2021/07/06 03:01:43;;;;;;;0.40;0.30;;;17.30;99.90;;;;;;5071690;28;20400;-84
2021/07/06 03:04:08;;;;;;;0.40;0.20;;;17.40;99.90;;;;;;5090546;28;20866;-84
2021/07/06 03:06:34;;;;;;;0.40;0.20;;;17.40;99.90;;;;;;5094287;28;20401;-84
2021/07/06 03:09:00;;;;;;;0.40;0.20;;;17.30;99.90;;;;;;5099173;28;20402;-84
2021/07/06 03:11:26;;;;;;;0.40;0.20;;;17.40;99.90;;;;;;5113903;28;20376;-83
2021/07/06 03:13:52;;;;;;;0.40;0.20;;;17.30;99.90;;;;;;5113782;28;20506;-84
2021/07/06 03:16:18;;;;;;;0.40;0.20;;;17.30;99.90;;;;;;5103998;28;20966;-84
2021/07/06 03:18:43;;;;;;;0.40;0.20;;;17.40;99.90;;;;;;5075059;28;20750;-84
2021/07/06 03:21:09;;;;;;;0.40;0.28;;;17.30;99.90;;;;;;5111826;28;20407;-84
2021/07/06 03:23:34;;;;;;;0.40;0.20;;;17.30;99.90;;;;;;5103704;28;20390;-84
2021/07/06 03:26:00;;;;;;;0.40;0.20;;;17.30;99.90;;;;;;5093367;28;20383;-84
2021/07/06 03:28:26;;;;;;;0.40;0.30;;;17.40;99.90;;;;;;5096208;28;20461;-83
2021/07/06 03:30:51;;;;;;;0.40;0.20;;;17.40;99.90;;;;;;5100508;28;20832;-84
2021/07/06 03:33:17;;;;;;;0.40;0.30;;;17.30;99.90;;;;;;5113814;28;20482;-84
2021/07/06 03:35:43;;;;;;;0.40;0.20;;;17.30;99.90;;;;;;5095749;28;20879;-84
2021/07/06 03:38:09;;;;;;;0.40;0.20;;;17.30;99.90;;;;;;5093530;28;20379;-84
2021/07/06 03:40:36;;;;;;;0.40;0.20;;;17.30;99.90;;;;;;5092728;28;20846;-84
2021/07/06 03:43:02;;;;;;;0.40;0.20;;;17.30;99.90;;;;;;5093545;28;20378;-84
2021/07/06 03:45:28;;;;;;;0.40;0.20;;;17.30;99.90;;;;;;5105268;28;20748;-84
2021/07/06 03:47:54;;;;;;;0.40;0.20;;;17.30;99.90;;;;;;5112190;28;20396;-84
2021/07/06 03:50:23;;;;;;;0.40;0.20;;;17.30;99.90;;;;;;5113827;28;20445;-84
2021/07/06 03:52:51;;;;;;;0.40;0.20;;;17.40;99.90;;;;;;5108878;28;20396;-84
2021/07/06 03:55:17;;;;;;;0.40;0.25;;;17.40;99.90;;;;;;5114008;28;20385;-84
2021/07/06 03:57:44;;;;;;;0.40;0.20;;;17.40;99.90;;;;;;5075260;28;20455;-84
2021/07/06 04:00:13;;;;;;;0.40;0.20;;;17.50;99.90;;;;;;5101390;28;20868;-84
2021/07/06 04:02:39;;;;;;;0.40;0.20;;;17.40;99.90;;;;;;5095092;28;20780;-83
2021/07/06 04:05:07;;;;;;;0.40;0.20;;;17.50;99.90;;;;;;5114056;28;20432;-84
2021/07/06 04:07:33;;;;;;;0.40;0.20;;;17.50;99.90;;;;;;5094822;28;20439;-84
2021/07/06 04:09:58;;;;;;;0.40;0.30;;;17.50;99.90;;;;;;5109645;28;20417;-84
2021/07/06 04:12:24;;;;;;;0.40;0.20;;;17.60;99.90;;;;;;5093200;28;20402;-84
2021/07/06 04:14:50;;;;;;;0.40;0.20;;;17.60;99.90;;;;;;5091352;28;20435;-84
2021/07/06 04:17:16;;;;;;;0.40;0.27;;;17.60;99.90;;;;;;5088450;28;20486;-84
2021/07/06 04:19:41;;;;;;;0.40;0.20;;;17.70;99.90;;;;;;5089332;28;20392;-83
2021/07/06 04:22:07;;;;;;;0.40;0.30;;;17.60;99.90;;;;;;5089731;28;20387;-84
2021/07/06 04:24:33;;;;;;;0.40;0.20;;;17.70;99.90;;;;;;5089511;28;20396;-83
2021/07/06 04:26:59;;;;;;;0.40;0.30;;;17.70;99.90;;;;;;5088914;28;20426;-84
2021/07/06 04:29:25;;;;;;;0.40;0.20;;;17.70;99.90;;;;;;5072599;28;20428;-83
2021/07/06 04:31:53;;;;;;;0.40;0.30;;;17.70;99.90;;;;;;5087335;28;20419;-83
2021/07/06 04:34:18;;;;;;;0.40;0.20;;;17.80;99.90;;;;;;5071939;28;20421;-84
2021/07/06 04:36:44;;;;;;;0.40;0.20;;;17.80;99.90;;;;;;5089284;28;20419;-83
2021/07/06 04:39:10;;;;;;;0.40;0.20;;;17.90;99.90;;;;;;5088948;28;20469;-83
2021/07/06 04:41:36;;;;;;;0.40;0.30;;;18.00;99.90;;;;;;5087544;28;20390;-84
2021/07/06 04:44:02;;;;;;;0.40;0.20;;;18.10;99.90;;;;;;5089615;28;20744;-83
2021/07/06 04:46:28;;;;;;;0.40;0.20;;;18.20;99.90;;;;;;5088818;28;20408;-83
2021/07/06 04:48:53;;;;;;;0.40;0.20;;;18.40;99.90;;;;;;5083674;27;20507;-84
2021/07/06 04:51:19;;;;;;;0.40;0.20;;;18.40;99.90;;;;;;5061560;27;20473;-84
2021/07/06 04:53:45;;;;;;;0.40;0.20;;;18.50;99.90;;;;;;5048733;27;20505;-83
2021/07/06 04:56:11;;;;;;;0.40;0.20;;;18.60;99.90;;;;;;5067121;27;20914;-82
2021/07/06 04:58:37;;;;;;;0.40;0.20;;;18.70;99.90;;;;;;5067152;27;21064;-84
2021/07/06 05:01:04;;;;;;;0.40;0.30;;;18.60;99.90;;;;;;5074389;27;20394;-83
2021/07/06 05:03:32;;;;;;;0.40;0.20;;;18.50;99.90;;;;;;5071039;27;20390;-82
2021/07/06 05:05:58;;;;;;;0.40;0.20;;;18.40;99.90;;;;;;5089925;28;20374;-82
2021/07/06 05:08:24;;;;;;;0.40;0.30;;;18.30;99.90;;;;;;5091629;28;20375;-83
2021/07/06 05:10:51;;;;;;;0.40;0.20;;;18.30;99.90;;;;;;5072720;28;20485;-83
2021/07/06 05:13:16;;;;;;;0.40;0.20;;;18.30;99.90;;;;;;5090544;28;20429;-83
2021/07/06 05:15:42;;;;;;;0.40;0.20;;;18.30;99.90;;;;;;5105768;28;20918;-82
2021/07/06 05:18:09;;;;;;;0.40;0.20;;;18.30;99.90;;;;;;5099924;28;20724;-83
2021/07/06 05:20:35;;;;;;;0.40;0.30;;;18.30;99.90;;;;;;5072304;28;20708;-84
2021/07/06 05:23:00;;;;;;;0.40;0.20;;;18.30;99.90;;;;;;5110585;28;20444;-83
2021/07/06 05:25:26;;;;;;;0.40;0.20;;;18.40;99.90;;;;;;5100932;28;20473;-82
2021/07/06 05:27:52;;;;;;;0.40;0.20;;;18.40;99.90;;;;;;5089501;28;20402;-81
2021/07/06 05:30:19;;;;;;;0.40;0.20;;;18.50;99.90;;;;;;5108008;28;20395;-83
2021/07/06 05:32:46;;;;;;;0.40;0.20;;;18.60;99.90;;;;;;5079898;28;20398;-83
2021/07/06 05:35:12;;;;;;;0.40;0.20;;;18.70;99.90;;;;;;5073459;28;20421;-83
2021/07/06 05:37:41;;;;;;;0.40;0.22;;;18.70;99.90;;;;;;5110641;28;20377;-83
2021/07/06 05:40:10;;;;;;;0.40;0.20;;;18.70;99.90;;;;;;5098504;28;20389;-83
2021/07/06 05:42:37;;;;;;;0.40;0.20;;;18.70;99.90;;;;;;5089912;28;20382;-86
2021/07/06 05:45:05;;;;;;;0.40;0.30;;;18.70;99.90;;;;;;5110975;28;20376;-83
2021/07/06 05:47:34;;;;;;;0.40;0.20;;;18.80;99.90;;;;;;5100084;28;20402;-82
2021/07/06 05:50:00;;;;;;;0.40;0.20;;;18.90;99.90;;;;;;5072081;28;20424;-83
2021/07/06 05:52:27;;;;;;;0.40;0.20;;;18.90;99.90;;;;;;5096139;28;20877;-81
2021/07/06 05:54:53;;;;;;;0.40;0.30;;;19.00;99.90;;;;;;5089709;28;20445;-81
2021/07/06 05:57:29;;;;;;;0.40;0.20;;;19.10;99.90;;;;;;5102857;28;20904;-81
2021/07/06 05:59:55;;;;;;;0.40;0.30;;;19.30;99.90;;;;;;5108318;28;20868;-80
2021/07/06 06:02:21;;;;;;;0.40;0.20;;;19.30;99.90;;;;;;5103376;28;20435;-80
2021/07/06 06:04:46;;;;;;;0.40;0.20;;;19.40;99.90;;;;;;5089574;28;20382;-80
2021/07/06 06:07:12;;;;;;;0.40;0.20;;;19.50;99.90;;;;;;5090883;28;20374;-80
2021/07/06 06:09:38;;;;;;;0.40;0.30;;;19.60;99.90;;;;;;5090079;28;20385;-81
2021/07/06 06:12:04;;;;;;;0.40;0.30;;;19.70;99.90;;;;;;5091478;28;20439;-80
2021/07/06 06:14:29;;;;;;;0.40;0.20;;;19.80;99.90;;;;;;5090999;28;20405;-81
2021/07/06 06:16:55;;;;;;;0.40;0.20;;;20.10;99.90;;;;;;5105760;28;20647;-81
2021/07/06 06:19:21;;;;;;;0.40;0.20;;;20.30;99.90;;;;;;5111240;28;20406;-80
2021/07/06 06:21:46;;;;;;;0.40;0.20;;;20.50;99.90;;;;;;5110603;28;20369;-82
2021/07/06 06:24:12;;;;;;;0.40;0.20;;;20.60;99.90;;;;;;5111366;28;20384;-82
2021/07/06 06:26:38;;;;;;;0.40;0.20;;;20.70;99.90;;;;;;5094125;28;20409;-82
2021/07/06 06:29:03;;;;;;;0.40;0.20;;;20.70;99.90;;;;;;5100275;28;20794;-82
2021/07/06 06:31:29;;;;;;;0.40;0.30;;;20.70;99.90;;;;;;5110581;28;20372;-82
2021/07/06 06:33:55;;;;;;;0.40;0.20;;;20.70;99.90;;;;;;5091456;28;20417;-82
2021/07/06 06:36:20;;;;;;;0.40;0.20;;;20.60;99.90;;;;;;5097240;28;20388;-82
2021/07/06 06:38:46;;;;;;;0.40;0.30;;;20.70;99.90;;;;;;5107944;28;20726;-83
2021/07/06 06:41:12;;;;;;;0.40;0.20;;;20.60;99.90;;;;;;5093439;28;20425;-82
2021/07/06 06:43:38;;;;;;;0.40;0.20;;;20.60;99.90;;;;;;5089630;28;20899;-84
2021/07/06 06:46:04;;;;;;;0.40;0.20;;;20.60;99.90;;;;;;5106834;28;20398;-83
2021/07/06 06:48:30;;;;;;;0.40;0.20;;;20.40;99.90;;;;;;5076046;28;20743;-83
2021/07/06 06:50:56;;;;;;;0.40;0.30;;;20.40;99.90;;;;;;5093759;28;20393;-83
2021/07/06 06:53:22;;;;;;;0.40;0.20;;;20.20;99.90;;;;;;5114798;28;20410;-83
2021/07/06 06:55:47;;;;;;;0.40;0.30;;;20.10;99.90;;;;;;5113938;28;20399;-83
2021/07/06 06:58:13;;;;;;;0.40;0.20;;;20.10;99.90;;;;;;5096680;28;20429;-83
2021/07/06 07:00:39;;;;;;;0.40;0.20;;;20.10;99.90;;;;;;5114198;28;20384;-84
2021/07/06 07:03:05;;;;;;;0.40;0.25;;;20.20;99.90;;;;;;5114571;28;20905;-83
2021/07/06 07:05:30;;;;;;;0.40;0.20;;;20.20;99.90;;;;;;5114350;28;20433;-83
2021/07/06 07:07:59;;;;;;;0.40;0.30;;;20.30;99.90;;;;;;5095631;28;20387;-83
2021/07/06 07:10:27;;;;;;;0.40;0.30;;;20.40;99.90;;;;;;5096226;28;20732;-83
2021/07/06 07:12:54;;;;;;;0.40;0.30;;;20.50;99.90;;;;;;5113577;28;20365;-84
2021/07/06 07:15:20;;;;;;;0.40;0.20;;;20.70;99.90;;;;;;5114236;28;20460;-83
2021/07/06 07:17:46;;;;;;;0.40;0.30;;;20.80;99.90;;;;;;5113480;28;20404;-83
2021/07/06 07:20:12;;;;;;;0.40;0.20;;;21.10;99.90;;;;;;5114173;28;20427;-82
2021/07/06 07:22:38;;;;;;;0.40;0.20;;;21.10;99.90;;;;;;5113595;28;20388;-84
2021/07/06 07:25:05;;;;;;;0.40;0.30;;;21.40;99.90;;;;;;5112857;28;20396;-82
2021/07/06 07:27:31;;;;;;;0.40;0.30;;;21.40;99.90;;;;;;5081372;28;20418;-83
2021/07/06 07:29:57;;;;;;;0.40;0.20;;;21.60;99.90;;;;;;5098375;28;20740;-83
2021/07/06 07:32:23;;;;;;;0.40;0.20;;;21.80;99.90;;;;;;5096199;28;20868;-84
2021/07/06 07:34:49;;;;;;;0.40;0.20;;;22.00;99.90;;;;;;5081050;28;20417;-83
2021/07/06 07:37:16;;;;;;;0.40;0.20;;;22.30;99.90;;;;;;5094388;28;20726;-80
2021/07/06 07:39:44;;;;;;;0.40;0.20;;;22.70;99.90;;;;;;5093128;28;20382;-85
2021/07/06 07:42:09;;;;;;;0.40;0.30;;;22.70;99.90;;;;;;5083351;28;20903;-76
2021/07/06 07:44:35;;;;;;;0.40;0.30;;;22.80;99.90;;;;;;5111604;28;20385;-82
2021/07/06 07:47:01;;;;;;;0.40;0.20;;;22.70;99.90;;;;;;5092948;28;20414;-82
2021/07/06 07:49:27;;;;;;;0.40;0.30;;;22.60;99.90;;;;;;5107836;28;20385;-84
2021/07/06 07:51:52;;;;;;;0.40;0.20;;;22.70;99.90;;;;;;5104608;28;20424;-85
2021/07/06 07:54:18;;;;;;;0.40;0.20;;;22.60;99.90;;;;;;5093189;28;20409;-82
2021/07/06 07:56:44;;;;;;;0.40;0.20;;;22.50;99.90;;;;;;5106415;28;20472;-82
2021/07/06 07:59:10;;;;;;;0.40;0.20;;;22.40;99.90;;;;;;5106304;28;20425;-85
2021/07/06 08:01:35;;;;;;;0.40;0.30;;;22.40;99.90;;;;;;5075292;28;20394;-76
2021/07/06 08:04:01;;;;;;;0.40;0.30;;;22.40;99.90;;;;;;5109868;28;20403;-84
2021/07/06 08:06:27;;;;;;;0.40;0.23;;;22.30;99.90;;;;;;5112901;28;20415;-85
2021/07/06 08:08:53;;;;;;;0.40;0.30;;;22.30;99.90;;;;;;5112461;28;20376;-81
2021/07/06 08:11:19;;;;;;;0.40;0.30;;;22.10;99.90;;;;;;5113416;28;20717;-83
2021/07/06 08:13:45;;;;;;;0.40;0.20;;;22.20;99.90;;;;;;5082088;28;20410;-79
2021/07/06 08:16:10;;;;;;;0.40;0.20;;;22.10;99.90;;;;;;5095417;28;20768;-83
2021/07/06 08:18:36;;;;;;;0.40;0.20;;;22.00;99.90;;;;;;5113321;28;20377;-84
2021/07/06 08:21:02;;;;;;;0.40;0.20;;;22.00;99.90;;;;;;5096404;28;20453;-81
2021/07/06 08:23:28;;;;;;;0.40;0.30;;;21.90;99.90;;;;;;5097269;28;20417;-84
2021/07/06 08:25:54;;;;;;;0.40;0.20;;;21.90;99.90;;;;;;5095822;28;20538;-82
2021/07/06 08:28:22;;;;;;;0.40;0.20;;;21.90;99.90;;;;;;5106813;28;20407;-80
2021/07/06 08:30:48;;;;;;;0.40;0.20;;;21.80;99.90;;;;;;5087844;28;20402;-84
2021/07/06 08:33:14;;;;;;;0.40;0.30;;;21.70;99.90;;;;;;5092364;28;20410;-83
2021/07/06 08:35:40;;;;;;;0.40;0.20;;;21.60;99.90;;;;;;5108641;28;20979;-83
2021/07/06 08:38:05;;;;;;;0.40;0.20;;;21.50;99.90;;;;;;5104828;28;20378;-80
2021/07/06 08:40:31;;;;;;;0.40;0.20;;;21.40;99.90;;;;;;5092006;28;20739;-84
2021/07/06 08:42:59;;;;;;;0.40;0.20;;;21.40;99.90;;;;;;5107253;28;20387;-84
2021/07/06 08:45:26;;;;;;;0.40;0.20;;;21.20;99.90;;;;;;5107240;28;20382;-84
2021/07/06 08:47:53;;;;;;;0.40;0.20;;;21.10;99.90;;;;;;5091975;28;20397;-84
2021/07/06 08:50:20;;;;;;;0.40;0.30;;;21.10;99.90;;;;;;5109623;28;20464;-84
2021/07/06 08:52:46;;;;;;;0.40;0.30;;;21.00;99.90;;;;;;5096489;28;20886;-85
2021/07/06 08:55:13;;;;;;;0.40;0.30;;;21.00;99.90;;;;;;5091850;28;20428;-85
2021/07/06 08:57:41;;;;;;;0.40;0.20;;;20.90;99.90;;;;;;5092320;28;20455;-83
2021/07/06 09:00:09;;;;;;;0.40;0.20;;;20.90;99.90;;;;;;5102819;28;20390;-84
2021/07/06 09:02:34;;;;;;;0.40;0.20;;;20.90;99.90;;;;;;5110837;28;20959;-84
2021/07/06 09:05:00;;;;;;;0.40;0.30;;;20.90;99.90;;;;;;5091081;28;20470;-85
2021/07/06 09:07:42;;;;;;;0.40;0.30;;;20.90;99.90;;;;;;5103808;28;20447;-83
2021/07/06 09:10:22;;;;;;;0.40;0.20;;;20.90;99.90;;;;;;5085720;28;20410;-83
2021/07/06 09:12:48;;;;;;;0.40;0.30;;;20.90;99.90;;;;;;5091438;28;20386;-85
2021/07/06 09:15:25;;;;;;;0.40;0.30;;;20.90;99.90;;;;;;5091288;28;20475;-83
2021/07/06 09:18:04;;;;;;;0.40;0.20;;;20.80;99.90;;;;;;5109237;28;20761;-84
2021/07/06 09:20:29;;;;;;;0.40;0.30;;;20.80;99.90;;;;;;5079532;28;20766;-83
2021/07/06 09:23:18;;;;;;;0.40;0.20;;;20.80;99.90;;;;;;5096022;28;20453;-84
2021/07/06 09:25:44;;;;;;;0.40;0.20;;;20.90;99.90;;;;;;5093478;28;20402;-83
2021/07/06 09:28:25;;;;;;;0.40;0.20;;;21.00;99.90;;;;;;5111542;28;20499;-84
2021/07/06 09:30:51;;;;;;;0.40;0.20;;;21.10;99.90;;;;;;5097508;28;20390;-84
2021/07/06 09:33:27;;;;;;;0.40;0.20;;;21.20;99.90;;;;;;5093313;28;20413;-84
2021/07/06 09:35:53;;;;;;;0.40;0.30;;;21.30;99.90;;;;;;5092888;28;20399;-84
2021/07/06 09:38:19;;;;;;;0.40;0.20;;;21.30;99.90;;;;;;5111311;28;20860;-83
2021/07/06 09:40:45;;;;;;;0.40;0.20;;;21.30;99.90;;;;;;5103580;28;20450;-84
2021/07/06 09:43:17;;;;;;;0.40;0.30;;;21.40;99.90;;;;;;5090741;28;20391;-84
2021/07/06 09:46:00;;;;;;;0.40;0.30;;;21.20;99.90;;;;;;5092622;28;20837;-84
2021/07/06 09:48:26;;;;;;;0.40;0.30;;;21.40;99.90;;;;;;5101230;28;20932;-84
2021/07/06 09:51:23;;;;;;;0.40;0.30;;;21.50;99.90;;;;;;5073192;28;20787;-83
2021/07/06 09:53:56;;;;;;;0.40;0.30;;;21.00;99.90;;;;;;5091121;28;20402;-83
2021/07/06 09:56:24;;;;;;;0.40;0.30;;;21.00;99.90;;;;;;5092191;28;21249;-83
2021/07/06 09:59:01;;;;;;;0.40;0.30;;;21.10;99.90;;;;;;5089804;28;20394;-84
2021/07/06 10:01:28;;;;;;;0.40;0.20;;;21.20;99.90;;;;;;5088564;28;20390;-83
2021/07/06 10:03:55;;;;;;;0.40;0.30;;;21.10;99.90;;;;;;5086599;28;20392;-83
2021/07/06 10:06:22;;;;;;;0.40;0.20;;;21.20;99.90;;;;;;5085267;28;20394;-82
2021/07/06 10:08:50;;;;;;;0.40;0.30;;;21.40;99.90;;;;;;5087689;28;20398;-83
2021/07/06 10:11:16;;;;;;;0.40;0.20;;;21.50;99.90;;;;;;5083953;28;20475;-83
2021/07/06 10:13:42;;;;;;;0.40;0.30;;;21.40;99.90;;;;;;5075892;28;20509;-83
2021/07/06 10:16:08;;;;;;;0.40;0.20;;;21.80;99.90;;;;;;5094325;28;21316;-83
2021/07/06 10:18:35;;;;;;;0.40;0.20;;;22.00;99.90;;;;;;5098838;28;20472;-82
2021/07/06 10:21:02;;;;;;;0.40;0.20;;;22.20;99.90;;;;;;5098639;28;20389;-82
2021/07/06 10:23:28;;;;;;;0.40;0.30;;;22.70;99.90;;;;;;5100399;28;20400;-83
2021/07/06 10:25:58;;;;;;;0.40;0.30;;;23.00;99.90;;;;;;5099202;28;20423;-82
2021/07/06 10:28:26;;;;;;;0.40;0.30;;;23.10;99.90;;;;;;5061627;27;20940;-82
2021/07/06 10:30:53;;;;;;;0.40;0.20;;;22.90;99.90;;;;;;5079465;27;20783;-82
2021/07/06 10:33:32;;;;;;;0.40;0.20;;;22.70;99.90;;;;;;5078186;27;20537;-84
2021/07/06 10:35:59;;;;;;;0.40;0.40;;;23.00;99.90;;;;;;5060759;27;20408;-82
2021/07/06 10:38:31;;;;;;;0.40;0.20;;;23.20;99.90;;;;;;5098121;27;20378;-81
2021/07/06 10:40:58;;;;;;;0.40;0.20;;;22.90;99.90;;;;;;5079195;28;20754;-83
2021/07/06 10:43:30;;;;;;;0.40;0.20;;;22.80;99.90;;;;;;5095715;28;20401;-81
2021/07/06 10:46:12;;;;;;;0.40;0.20;;;22.60;99.90;;;;;;5095918;28;20477;-83
2021/07/06 10:48:42;;;;;;;0.40;0.20;;;22.40;99.90;;;;;;5073566;27;21598;-82
2021/07/06 10:51:09;;;;;;;0.40;0.30;;;22.40;99.90;;;;;;5078127;27;20499;-83
2021/07/06 10:53:35;;;;;;;0.40;0.20;;;22.00;99.90;;;;;;5075484;27;21608;-82
2021/07/06 10:56:07;;;;;;;0.40;0.20;;;21.70;99.90;;;;;;5059577;27;20509;-83
2021/07/06 10:58:48;;;;;;;0.40;0.20;;;21.60;99.90;;;;;;5092918;28;20382;-84
2021/07/06 11:01:36;;;;;;;0.40;0.20;;;21.40;99.90;;;;;;5074492;28;20393;-82
2021/07/06 11:04:02;;;;;;;0.50;0.50;;;21.20;99.90;;;;;;5061272;27;21818;-83
2021/07/06 11:06:43;;;;;;;0.40;0.20;;;21.00;99.90;;;;;;5074957;27;20384;-82
2021/07/06 11:09:10;;;;;;;0.40;0.20;;;20.80;99.90;;;;;;5073746;27;20456;-82
2021/07/06 11:11:36;;;;;;;0.40;0.20;;;20.60;99.90;;;;;;5074883;27;20406;-82
2021/07/06 11:14:22;;;;;;;0.40;0.30;;;20.40;99.90;;;;;;5094389;27;20496;-83
2021/07/06 11:17:01;;;;;;;0.40;0.20;;;20.30;99.90;;;;;;5085044;27;20522;-81
2021/07/06 11:19:38;;;;;;;0.40;0.20;;;20.30;99.90;;;;;;5076383;27;20464;-82
2021/07/06 11:22:21;;;;;;;0.40;0.20;;;20.30;99.90;;;;;;5074979;27;20455;-80
2021/07/06 11:24:48;;;;;;;0.40;0.20;;;20.10;99.90;;;;;;5077528;27;20473;-79
2021/07/06 11:27:56;;;;;;;0.40;0.30;;;19.90;99.90;;;;;;5072575;27;20468;-76
2021/07/06 11:30:24;;;;;;;0.40;0.20;;;19.80;99.90;;;;;;5063841;28;20390;-78
2021/07/06 11:33:15;;;;;;;0.40;0.30;;;19.70;99.90;;;;;;5085437;27;20507;-81
2021/07/06 11:35:43;;;;;;;0.40;0.20;;;19.60;99.90;;;;;;5073629;27;20582;-81
2021/07/06 11:38:14;;;;;;;0.40;0.20;;;19.40;99.90;;;;;;5072995;27;20460;-83
2021/07/06 11:40:42;;;;;;;0.40;0.20;;;19.30;99.90;;;;;;5076980;27;21008;-81
2021/07/06 11:43:09;;;;;;;0.40;0.20;;;19.20;99.90;;;;;;5077483;27;20413;-82
2021/07/06 11:45:37;;;;;;;0.40;0.20;;;19.20;99.90;;;;;;5074565;27;20646;-82
2021/07/06 11:48:13;;;;;;;0.40;0.20;;;18.80;99.90;;;;;;5093106;28;20430;-76
2021/07/06 11:50:42;;;;;;;0.40;0.30;;;19.10;99.90;;;;;;5094853;28;20407;-76
2021/07/06 11:53:08;;;;;;;0.40;0.20;;;19.00;99.90;;;;;;5095293;28;20418;-77
2021/07/06 11:55:36;;;;;;;0.40;0.20;;;18.80;99.90;;;;;;5094288;28;20794;-74
2021/07/06 11:58:04;;;;;;;0.40;0.20;;;18.90;99.90;;;;;;5093816;28;20416;-77
2021/07/06 12:00:33;;;;;;;0.40;0.30;;;18.90;99.90;;;;;;5094951;28;20366;-78
2021/07/06 12:03:17;;;;;;;0.40;0.20;;;18.90;99.90;;;;;;5094953;28;20382;-82
2021/07/06 12:05:47;;;;;;;0.40;0.20;;;19.00;99.90;;;;;;5107535;28;20460;-78
2021/07/06 12:08:24;;;;;;;0.40;0.20;;;19.00;99.90;;;;;;5082526;28;20388;-76
2021/07/06 12:11:14;;;;;;;0.40;0.20;;;18.90;99.90;;;;;;5073422;27;20505;-84
2021/07/06 12:13:39;;;;;;;0.40;0.30;;;18.10;99.90;;;;;;5103145;27;20404;-76
2021/07/06 12:16:10;;;;;;;0.40;0.20;;;18.80;99.90;;;;;;5112642;28;20534;-75
2021/07/06 12:18:37;;;;;;;0.40;0.20;;;18.80;99.90;;;;;;5111875;28;20388;-75
2021/07/06 12:21:07;;;;;;;0.40;0.20;;;19.00;99.90;;;;;;5111673;28;20377;-76
2021/07/06 12:23:44;;;;;;;0.40;0.20;;;19.00;99.90;;;;;;5098534;28;20382;-78
2021/07/06 12:26:10;;;;;;;0.40;0.20;;;19.00;99.90;;;;;;5094432;28;20455;-74
2021/07/06 12:28:39;;;;;;;0.40;0.20;;;18.80;99.90;;;;;;5112549;28;20380;-76
2021/07/06 12:31:30;;;;;;;0.40;0.20;;;18.70;99.90;;;;;;5095520;28;20378;-75
2021/07/06 12:34:06;;;;;;;0.40;0.20;;;18.70;99.90;;;;;;5104669;28;20419;-75
2021/07/06 12:36:45;;;;;;;0.40;0.20;;;18.60;99.90;;;;;;5107446;28;20495;-77
2021/07/06 12:39:22;;;;;;;0.40;0.20;;;18.70;99.90;;;;;;5090642;28;20393;-76
2021/07/06 12:41:58;;;;;;;0.40;0.20;;;18.60;99.90;;;;;;5073792;28;20398;-76
2021/07/06 12:44:38;;;;;;;0.40;0.20;;;18.50;99.90;;;;;;5103847;28;20397;-76
2021/07/06 12:47:37;;;;;;;0.40;0.20;;;18.40;99.90;;;;;;5105609;28;20742;-75
2021/07/06 12:50:19;;;;;;;0.40;0.30;;;18.40;99.90;;;;;;5090490;28;20388;-81
2021/07/06 12:52:49;;;;;;;0.40;0.20;;;18.40;99.90;;;;;;5097441;28;20424;-78